Time;durP1;ratioP1;P1;durP2;ratioP2;P2;SDS_P1;SDS_P2;PMS_P1;PMS_P2;Temp;Humidity;BMP_temperature;BMP_pressure;BME280_temperature;BME280_humidity;BME280_pressure;Samples;Min_cycle;Max_cycle;Signal;HPM_P1;HPM_P2
2022/01/22 00:02:14;;;;;;;2.88;2.70;;;2.80;78.90;;;;;;5029175;28;20208;-69
2022/01/22 00:04:41;;;;;;;2.67;2.58;;;2.80;79.50;;;;;;5029226;28;20227;-70
2022/01/22 00:07:10;;;;;;;2.83;2.63;;;2.80;79.20;;;;;;5028871;28;20274;-69
2022/01/22 00:09:40;;;;;;;2.55;2.45;;;2.80;78.90;;;;;;5030118;28;20219;-69
2022/01/22 00:12:11;;;;;;;2.80;2.70;;;2.80;78.60;;;;;;5029446;28;20200;-69
2022/01/22 00:14:39;;;;;;;2.60;2.50;;;2.90;78.90;;;;;;5028355;28;20220;-69
2022/01/22 00:17:06;;;;;;;2.55;2.45;;;2.90;79.20;;;;;;5029892;28;20227;-69
2022/01/22 00:19:33;;;;;;;2.80;2.70;;;2.90;79.20;;;;;;5029206;28;20231;-69
2022/01/22 00:22:00;;;;;;;2.90;2.80;;;2.90;79.90;;;;;;5028345;28;20203;-69
2022/01/22 00:24:36;;;;;;;2.75;2.65;;;3.00;79.40;;;;;;5030892;28;20285;-69
2022/01/22 00:27:04;;;;;;;3.00;2.90;;;3.00;79.50;;;;;;5040379;28;20215;-70
2022/01/22 00:29:31;;;;;;;2.55;2.45;;;3.00;79.30;;;;;;5041895;28;20227;-70
2022/01/22 00:31:58;;;;;;;2.88;2.78;;;3.00;79.90;;;;;;5043410;28;20200;-70
2022/01/22 00:34:25;;;;;;;2.58;2.47;;;2.90;79.80;;;;;;5026606;28;20223;-70
2022/01/22 00:36:52;;;;;;;2.67;2.58;;;2.90;79.60;;;;;;5028260;28;20211;-69
2022/01/22 00:39:19;;;;;;;2.63;2.53;;;2.80;79.50;;;;;;5027207;28;20203;-69
2022/01/22 00:41:48;;;;;;;2.63;2.53;;;2.80;79.30;;;;;;5028576;28;20301;-69
2022/01/22 00:44:15;;;;;;;2.70;2.60;;;2.70;79.70;;;;;;5028483;28;20220;-69
2022/01/22 00:46:42;;;;;;;2.63;2.53;;;2.70;80.30;;;;;;5067303;22;20227;-73
2022/01/22 00:49:09;;;;;;;2.75;2.65;;;2.70;80.20;;;;;;5018887;28;20207;-76
2022/01/22 00:51:36;;;;;;;2.67;2.58;;;2.60;80.30;;;;;;5020334;28;20206;-75
2022/01/22 00:54:03;;;;;;;2.50;2.40;;;2.60;80.60;;;;;;5022815;28;20196;-74
2022/01/22 00:56:30;;;;;;;2.50;2.40;;;2.60;80.50;;;;;;5014948;28;20702;-75
2022/01/22 00:58:59;;;;;;;2.65;2.55;;;2.50;80.40;;;;;;4999863;28;20204;-73
2022/01/22 01:01:26;;;;;;;2.75;2.65;;;2.50;80.70;;;;;;5002933;28;20323;-76
2022/01/22 01:03:56;;;;;;;2.45;2.35;;;2.50;81.20;;;;;;5003930;28;20219;-73
2022/01/22 01:06:24;;;;;;;2.30;2.10;;;2.50;81.40;;;;;;5001397;28;20231;-75
2022/01/22 01:08:51;;;;;;;2.72;2.63;;;2.50;82.00;;;;;;5002763;28;20201;-73
2022/01/22 01:11:18;;;;;;;2.53;2.42;;;2.40;81.90;;;;;;5005753;28;20219;-77
2022/01/22 01:13:49;;;;;;;2.78;2.67;;;2.50;82.40;;;;;;5003316;28;20615;-74
2022/01/22 01:16:22;;;;;;;2.80;2.70;;;2.50;82.50;;;;;;5000115;28;20314;-74
2022/01/22 01:32:42;;;;;;;2.45;2.35;;;2.40;83.00;;;;;;5005635;28;20714;-73
2022/01/22 01:35:10;;;;;;;2.90;2.80;;;2.40;83.80;;;;;;5005828;28;20220;-73
2022/01/22 01:37:37;;;;;;;2.75;2.65;;;2.40;84.40;;;;;;5002860;28;20219;-74
2022/01/22 01:40:07;;;;;;;3.00;2.90;;;2.30;83.80;;;;;;5005858;28;20227;-74
2022/01/22 01:42:42;;;;;;;2.63;2.53;;;2.30;83.70;;;;;;5005574;28;20228;-73
2022/01/22 01:45:10;;;;;;;2.50;2.40;;;2.30;83.60;;;;;;5005441;28;20219;-72
2022/01/22 01:47:41;;;;;;;2.70;2.60;;;2.30;83.50;;;;;;5002584;28;20228;-74
2022/01/22 01:50:09;;;;;;;2.38;2.28;;;2.30;83.90;;;;;;5001126;28;20230;-73
2022/01/22 01:52:43;;;;;;;2.17;2.08;;;2.30;84.30;;;;;;5005749;28;20196;-73
2022/01/22 01:55:14;;;;;;;2.58;2.47;;;2.30;84.50;;;;;;5005866;28;20618;-74
2022/01/22 01:57:42;;;;;;;2.75;2.65;;;2.30;84.60;;;;;;5007076;28;20299;-74
2022/01/22 02:00:14;;;;;;;2.70;2.60;;;2.30;84.80;;;;;;5006421;28;20579;-73
2022/01/22 02:02:42;;;;;;;2.35;2.25;;;2.20;84.30;;;;;;5006408;28;20196;-74
2022/01/22 02:05:11;;;;;;;2.63;2.53;;;2.20;84.50;;;;;;5005208;28;20247;-73
2022/01/22 02:07:41;;;;;;;2.28;2.17;;;2.20;85.00;;;;;;5006387;28;20220;-74
2022/01/22 02:10:13;;;;;;;2.60;2.50;;;2.20;85.70;;;;;;4999801;28;20227;-73
2022/01/22 02:23:43;;;;;;;3.22;3.00;;;2.10;85.30;;;;;;5003400;28;20207;-74
2022/01/22 02:26:13;;;;;;;2.67;2.58;;;2.10;85.70;;;;;;5005559;28;20680;-73
2022/01/22 02:28:41;;;;;;;2.97;2.88;;;2.10;85.80;;;;;;5002272;28;20207;-75
2022/01/22 02:31:13;;;;;;;2.70;2.60;;;2.00;85.80;;;;;;5007545;28;20228;-74
2022/01/22 02:33:50;;;;;;;3.00;2.90;;;2.00;85.50;;;;;;5004330;28;20246;-73
2022/01/22 02:36:22;;;;;;;2.85;2.75;;;2.00;86.20;;;;;;5002360;28;20231;-74
2022/01/22 02:38:56;;;;;;;2.72;2.63;;;2.00;86.70;;;;;;5006181;28;20197;-72
2022/01/22 02:41:25;;;;;;;2.55;2.45;;;2.00;86.90;;;;;;5002658;28;20552;-73
2022/01/22 02:43:53;;;;;;;2.85;2.75;;;2.00;87.30;;;;;;5008107;28;20200;-74
2022/01/22 02:46:23;;;;;;;2.80;2.70;;;2.00;87.10;;;;;;5003267;28;20239;-74
2022/01/22 02:48:50;;;;;;;2.50;2.40;;;2.00;87.20;;;;;;5003258;28;20199;-73
2022/01/22 02:51:17;;;;;;;2.90;2.80;;;1.90;87.80;;;;;;5006165;28;20637;-74
2022/01/22 02:53:44;;;;;;;2.90;2.80;;;1.80;88.30;;;;;;5006033;28;20200;-73
2022/01/22 02:56:13;;;;;;;2.95;2.75;;;1.70;88.80;;;;;;5001027;28;20216;-73
2022/01/22 02:58:40;;;;;;;2.88;2.78;;;1.70;88.70;;;;;;5004796;28;20197;-73
2022/01/22 03:01:07;;;;;;;2.85;2.75;;;1.70;88.40;;;;;;5002754;28;20229;-74
2022/01/22 03:03:34;;;;;;;2.72;2.63;;;1.70;88.10;;;;;;5006419;28;20200;-75
2022/01/22 03:06:02;;;;;;;2.90;2.80;;;1.70;87.90;;;;;;5008058;28;20272;-73
2022/01/22 03:08:30;;;;;;;3.10;3.00;;;1.70;87.60;;;;;;5011932;28;20200;-73
2022/01/22 03:10:57;;;;;;;3.10;3.00;;;1.70;87.20;;;;;;5005867;28;20265;-74
2022/01/22 03:16:34;;;;;;;2.95;2.85;;;1.60;86.80;;;;;;4934201;29;20358;-73
2022/01/22 03:19:07;;;;;;;2.97;2.88;;;1.50;87.00;;;;;;4993626;28;20196;-73
2022/01/22 03:21:40;;;;;;;3.20;3.10;;;1.40;87.50;;;;;;4988873;28;20221;-74
2022/01/22 03:29:39;;;;;;;2.78;2.67;;;1.30;89.20;;;;;;4982585;28;20200;-74
2022/01/22 03:32:09;;;;;;;2.78;2.67;;;1.40;89.20;;;;;;4984827;28;20202;-73
2022/01/22 03:34:42;;;;;;;2.70;2.60;;;1.40;89.20;;;;;;4984007;28;20204;-73
2022/01/22 03:37:09;;;;;;;2.85;2.75;;;1.40;89.30;;;;;;4985693;28;20228;-73
2022/01/22 03:39:36;;;;;;;3.20;3.10;;;1.50;89.10;;;;;;4984042;28;20571;-73
2022/01/22 03:42:04;;;;;;;3.13;3.03;;;1.50;88.60;;;;;;4983927;28;20201;-73
2022/01/22 03:44:31;;;;;;;3.20;3.10;;;1.40;88.80;;;;;;4991372;28;20220;-72
2022/01/22 03:46:59;;;;;;;3.08;2.97;;;1.40;89.10;;;;;;4989404;28;20233;-73
2022/01/22 03:49:26;;;;;;;2.83;2.72;;;1.30;88.50;;;;;;4984008;28;20219;-74
2022/01/22 03:51:53;;;;;;;2.90;2.80;;;1.30;88.10;;;;;;5008249;28;20220;-73
2022/01/22 03:54:20;;;;;;;2.78;2.67;;;1.30;88.60;;;;;;5002738;28;20192;-74
2022/01/22 03:56:48;;;;;;;3.20;3.10;;;1.30;88.90;;;;;;5006747;28;20224;-72
2022/01/22 03:59:16;;;;;;;2.90;2.80;;;1.20;88.90;;;;;;5006337;28;20232;-73
2022/01/22 04:04:37;;;;;;;3.17;3.08;;;1.10;89.10;;;;;;5007053;28;20219;-73
2022/01/22 04:09:52;;;;;;;2.88;2.78;;;1.00;89.30;;;;;;5002409;28;20254;-73
2022/01/22 04:12:26;;;;;;;3.28;3.17;;;1.00;89.30;;;;;;5006158;28;20193;-72
2022/01/22 04:14:58;;;;;;;3.38;3.17;;;1.00;89.60;;;;;;5002791;28;20666;-73
2022/01/22 04:24:47;;;;;;;2.80;2.70;;;1.00;89.60;;;;;;5005967;28;20216;-73
2022/01/22 04:25:47;;;;;;;3.10;3.00;;;0.80;90.00;;;;;;5004011;28;20239;-73
2022/01/22 04:28:15;;;;;;;3.28;3.08;;;0.80;90.10;;;;;;5003884;28;20647;-73
2022/01/22 04:30:42;;;;;;;2.90;2.80;;;0.80;90.10;;;;;;5008495;28;20224;-73
2022/01/22 04:33:09;;;;;;;2.75;2.65;;;0.80;90.20;;;;;;5003429;28;20227;-73
2022/01/22 04:35:37;;;;;;;2.78;2.67;;;0.80;89.90;;;;;;5002911;28;20702;-73
2022/01/22 04:38:04;;;;;;;3.17;3.08;;;0.90;89.50;;;;;;5004709;28;20275;-73
2022/01/22 04:40:31;;;;;;;2.92;2.83;;;0.90;89.30;;;;;;5002954;28;20287;-73
2022/01/22 04:43:00;;;;;;;2.95;2.85;;;0.90;89.30;;;;;;5006589;28;20581;-73
2022/01/22 04:45:40;;;;;;;3.20;3.10;;;0.90;89.10;;;;;;5005245;28;20215;-73
2022/01/22 04:48:23;;;;;;;3.15;3.05;;;0.90;89.40;;;;;;5002660;28;20232;-73
2022/01/22 04:56:21;;;;;;;3.45;3.25;;;0.90;90.40;;;;;;4998167;28;20297;-73
2022/01/22 04:58:48;;;;;;;3.10;3.00;;;0.90;90.50;;;;;;5007276;28;20200;-73
2022/01/22 05:01:15;;;;;;;3.13;2.92;;;0.90;90.50;;;;;;5003083;28;20266;-73
2022/01/22 05:03:42;;;;;;;2.97;2.88;;;0.90;90.70;;;;;;5006284;28;20203;-74
2022/01/22 05:06:10;;;;;;;2.83;2.72;;;0.90;90.90;;;;;;5003694;28;20220;-73
2022/01/22 05:08:37;;;;;;;2.90;2.80;;;0.90;90.70;;;;;;5004971;28;20205;-74
2022/01/22 05:11:04;;;;;;;2.58;2.47;;;0.90;90.50;;;;;;5001742;28;20236;-73
2022/01/22 05:13:31;;;;;;;3.55;3.35;;;0.80;90.30;;;;;;5006943;28;20623;-73
2022/01/22 05:15:59;;;;;;;3.30;3.20;;;0.70;90.50;;;;;;5006667;28;20220;-74
2022/01/22 05:18:26;;;;;;;2.55;2.45;;;0.60;90.70;;;;;;4999507;28;20208;-73
2022/01/22 05:21:01;;;;;;;3.03;2.92;;;0.60;90.90;;;;;;5005399;28;20306;-73
2022/01/22 05:23:30;;;;;;;3.08;2.97;;;0.60;91.20;;;;;;5005550;28;20595;-74
2022/01/22 05:26:01;;;;;;;3.28;3.03;;;0.70;91.10;;;;;;5005283;28;20234;-73
2022/01/22 05:29:02;;;;;;;3.35;3.22;;;0.70;91.00;;;;;;5002995;28;20218;-73
2022/01/22 05:31:40;;;;;;;3.00;2.90;;;0.70;91.00;;;;;;5000298;28;20223;-73
2022/01/22 05:37:01;;;;;;;2.83;2.72;;;0.60;90.90;;;;;;5004869;28;20584;-73
2022/01/22 05:39:31;;;;;;;2.78;2.67;;;0.60;91.10;;;;;;5002204;28;20204;-73
2022/01/22 05:41:59;;;;;;;3.10;3.00;;;0.60;91.00;;;;;;5000100;28;20601;-72
2022/01/22 05:44:26;;;;;;;3.20;3.00;;;0.60;91.00;;;;;;5003787;28;20196;-73
2022/01/22 05:46:57;;;;;;;3.10;3.00;;;0.60;91.20;;;;;;5002526;28;20224;-73
2022/01/22 05:49:26;;;;;;;3.17;3.08;;;0.60;91.10;;;;;;5005472;28;20698;-74
2022/01/22 05:51:56;;;;;;;3.30;3.20;;;0.60;91.30;;;;;;5006813;28;20250;-72
2022/01/22 05:59:50;;;;;;;3.83;3.63;;;0.60;91.50;;;;;;4985083;28;20207;-74
2022/01/22 06:02:19;;;;;;;3.75;3.55;;;0.60;91.40;;;;;;4981602;28;20224;-72
2022/01/22 06:04:47;;;;;;;3.03;2.92;;;0.60;91.40;;;;;;4983505;28;20198;-74
2022/01/22 06:07:14;;;;;;;3.53;3.42;;;0.60;91.40;;;;;;4972995;28;20234;-73
2022/01/22 06:09:54;;;;;;;3.40;3.20;;;0.60;91.50;;;;;;4980192;28;20205;-74
2022/01/22 06:12:39;;;;;;;2.92;2.83;;;0.60;91.30;;;;;;4981215;28;20228;-73
2022/01/22 06:15:07;;;;;;;3.15;3.05;;;0.60;91.30;;;;;;4983696;28;20759;-73
2022/01/22 06:17:34;;;;;;;3.40;3.30;;;0.60;91.40;;;;;;4983929;28;20636;-74
2022/01/22 06:20:01;;;;;;;3.63;3.53;;;0.50;91.40;;;;;;4984006;28;20230;-74
2022/01/22 06:22:28;;;;;;;3.20;3.10;;;0.50;91.50;;;;;;4982532;28;20197;-73
2022/01/22 06:24:56;;;;;;;3.08;2.97;;;0.50;91.50;;;;;;4983327;28;21245;-73
2022/01/22 06:27:24;;;;;;;3.42;3.22;;;0.50;91.40;;;;;;4980316;28;20314;-73
2022/01/22 06:29:51;;;;;;;3.17;3.08;;;0.50;91.50;;;;;;4980930;28;20674;-73
2022/01/22 06:32:18;;;;;;;3.40;3.30;;;0.50;91.70;;;;;;4980895;28;20373;-73
2022/01/22 06:34:45;;;;;;;3.10;3.00;;;0.50;91.80;;;;;;4987004;28;20255;-74
2022/01/22 06:37:12;;;;;;;3.50;3.40;;;0.50;91.80;;;;;;4983734;28;20217;-73
2022/01/22 06:41:44;;;;;;;3.00;2.90;;;0.40;91.80;;;;;;4984235;28;20201;-73
2022/01/22 06:42:30;;;;;;;3.20;3.10;;;0.50;91.70;;;;;;4988636;28;20244;-73
2022/01/22 06:44:57;;;;;;;2.97;2.88;;;0.50;91.60;;;;;;4997085;28;20203;-72
2022/01/22 06:47:24;;;;;;;3.47;3.38;;;0.40;91.70;;;;;;5043605;23;20302;-70
2022/01/22 06:49:51;;;;;;;3.45;3.20;;;0.40;91.70;;;;;;4986515;28;20268;-70
2022/01/22 06:52:18;;;;;;;3.25;3.15;;;0.40;91.80;;;;;;4986392;28;20216;-70
2022/01/22 06:54:46;;;;;;;3.15;3.00;;;0.40;91.80;;;;;;4983331;28;20206;-70
2022/01/22 06:57:13;;;;;;;3.22;3.10;;;0.40;91.80;;;;;;4984158;28;20765;-69
2022/01/22 06:59:41;;;;;;;4.18;3.60;;;0.40;91.80;;;;;;4968778;28;20731;-69
2022/01/22 07:02:09;;;;;;;3.05;2.95;;;0.40;92.00;;;;;;4968615;28;20629;-69
2022/01/22 07:04:37;;;;;;;3.53;3.40;;;0.40;91.90;;;;;;4969460;28;20284;-68
2022/01/22 07:07:05;;;;;;;2.90;2.80;;;0.50;91.80;;;;;;4964528;28;20285;-69
2022/01/22 07:09:32;;;;;;;3.75;3.55;;;0.50;91.70;;;;;;4963309;28;20198;-69
2022/01/22 07:11:59;;;;;;;3.30;3.20;;;0.50;92.00;;;;;;4966156;28;20574;-69
2022/01/22 07:14:27;;;;;;;3.72;3.53;;;0.50;92.20;;;;;;4964451;28;20713;-68
2022/01/22 07:16:56;;;;;;;3.80;3.60;;;0.50;92.20;;;;;;4967298;28;20697;-69
2022/01/22 07:19:23;;;;;;;3.65;3.45;;;0.50;92.10;;;;;;4969600;28;20260;-70
2022/01/22 07:21:58;;;;;;;3.55;3.35;;;0.50;92.20;;;;;;4967803;28;20225;-70
2022/01/22 07:24:26;;;;;;;3.70;3.50;;;0.50;92.30;;;;;;4969346;28;20194;-69
2022/01/22 07:26:54;;;;;;;3.38;3.28;;;0.50;92.40;;;;;;4964743;28;20707;-69
2022/01/22 07:29:22;;;;;;;3.55;3.42;;;0.50;92.40;;;;;;4960873;28;20280;-68
2022/01/22 07:31:49;;;;;;;3.97;3.72;;;0.50;92.40;;;;;;4966115;28;20229;-69
2022/01/22 07:34:18;;;;;;;3.60;3.45;;;0.50;92.00;;;;;;4964922;28;20205;-69
2022/01/22 07:36:45;;;;;;;3.75;3.55;;;0.40;92.20;;;;;;4967203;28;20933;-69
2022/01/22 07:39:12;;;;;;;3.22;3.13;;;0.50;92.30;;;;;;4966465;28;20252;-69
2022/01/22 07:41:39;;;;;;;3.83;3.55;;;0.50;92.30;;;;;;4968434;28;20225;-69
2022/01/22 07:44:06;;;;;;;3.63;3.42;;;0.50;92.30;;;;;;4968395;28;20199;-68
2022/01/22 07:46:33;;;;;;;3.38;3.28;;;0.50;92.20;;;;;;4964190;28;20705;-69
2022/01/22 07:49:00;;;;;;;3.75;3.55;;;0.60;92.40;;;;;;4965807;28;20233;-68
2022/01/22 07:51:28;;;;;;;3.03;2.92;;;0.60;92.30;;;;;;4966087;28;20232;-69
2022/01/22 07:53:55;;;;;;;4.18;3.90;;;0.60;92.30;;;;;;4965870;28;20214;-69
2022/01/22 07:56:22;;;;;;;4.70;4.40;;;0.50;92.50;;;;;;4970922;28;20236;-69
2022/01/22 07:58:49;;;;;;;5.00;4.53;;;0.60;92.60;;;;;;4983172;28;20229;-69
2022/01/22 08:01:16;;;;;;;5.57;5.07;;;0.60;93.50;;;;;;4981127;28;20946;-70
2022/01/22 08:03:43;;;;;;;5.63;5.22;;;0.70;92.50;;;;;;4979650;28;20235;-71
2022/01/22 08:06:10;;;;;;;6.53;5.78;;;0.70;92.30;;;;;;4983457;28;20669;-70
2022/01/22 08:08:39;;;;;;;6.22;5.65;;;0.70;92.20;;;;;;4982202;28;20284;-69
2022/01/22 08:11:06;;;;;;;5.88;5.38;;;0.80;92.40;;;;;;4982688;28;20303;-70
2022/01/22 08:13:33;;;;;;;5.18;4.88;;;0.80;92.40;;;;;;4981814;28;20209;-69
2022/01/22 08:16:00;;;;;;;5.60;5.10;;;0.90;92.30;;;;;;4979266;28;20228;-70
2022/01/22 08:18:27;;;;;;;4.32;4.03;;;1.00;92.20;;;;;;4982986;28;20232;-69
2022/01/22 08:20:54;;;;;;;4.95;4.65;;;1.40;91.70;;;;;;4982363;28;20220;-70
2022/01/22 08:23:23;;;;;;;4.53;4.22;;;1.60;91.20;;;;;;4979136;28;20668;-70
2022/01/22 08:25:51;;;;;;;4.55;4.25;;;2.40;90.90;;;;;;4979846;28;20221;-69
2022/01/22 08:31:16;;;;;;;4.88;4.47;;;3.40;89.40;;;;;;4976419;28;20596;-66
2022/01/22 08:36:27;;;;;;;4.10;3.80;;;4.50;88.50;;;;;;4980929;28;20223;-71
2022/01/22 08:38:54;;;;;;;4.53;4.13;;;5.40;86.70;;;;;;4980709;28;20217;-71
2022/01/22 08:41:23;;;;;;;4.00;3.70;;;5.40;85.30;;;;;;4984078;28;20229;-71
2022/01/22 08:43:50;;;;;;;4.80;4.40;;;6.20;84.90;;;;;;4980997;28;20201;-71
2022/01/22 08:46:17;;;;;;;4.03;3.72;;;6.70;84.20;;;;;;4981834;28;20227;-70
2022/01/22 08:48:45;;;;;;;4.20;3.80;;;7.30;82.40;;;;;;4981610;28;20220;-72
2022/01/22 08:51:12;;;;;;;4.35;4.05;;;7.90;81.70;;;;;;4980879;28;20233;-70
2022/01/22 08:53:40;;;;;;;4.93;4.45;;;8.40;81.40;;;;;;4982877;28;20237;-70
2022/01/22 08:56:08;;;;;;;4.13;3.72;;;8.70;81.20;;;;;;4978822;28;20217;-70
2022/01/22 08:58:37;;;;;;;4.28;3.97;;;9.10;79.90;;;;;;4980647;28;20270;-70
2022/01/22 09:01:05;;;;;;;3.50;3.20;;;9.40;79.20;;;;;;4979379;28;20217;-70
2022/01/22 09:03:32;;;;;;;3.47;3.17;;;9.60;78.60;;;;;;4980003;28;20217;-71
2022/01/22 09:05:59;;;;;;;3.80;3.08;;;9.70;77.20;;;;;;4977091;28;20247;-72
2022/01/22 09:08:27;;;;;;;3.38;3.13;;;9.80;77.90;;;;;;4981546;28;20633;-71
2022/01/22 09:10:55;;;;;;;3.70;3.40;;;10.20;77.70;;;;;;4980386;28;20197;-71
2022/01/22 09:13:23;;;;;;;3.22;3.00;;;10.60;77.20;;;;;;4983753;28;20209;-73
2022/01/22 09:15:54;;;;;;;4.07;3.13;;;10.90;75.90;;;;;;4982084;28;20259;-71
2022/01/22 09:18:21;;;;;;;4.25;3.17;;;10.90;75.40;;;;;;4978264;28;20457;-73
2022/01/22 09:21:04;;;;;;;3.63;3.33;;;11.00;74.80;;;;;;4978999;28;20252;-72
2022/01/22 09:23:32;;;;;;;2.72;2.53;;;11.00;74.70;;;;;;4978562;28;20201;-72
2022/01/22 09:26:00;;;;;;;2.80;2.60;;;11.00;73.90;;;;;;4978042;28;20502;-72
2022/01/22 09:28:30;;;;;;;4.25;2.55;;;11.50;73.70;;;;;;4977521;28;20240;-70
2022/01/22 09:30:59;;;;;;;3.10;2.80;;;12.60;73.30;;;;;;4979236;28;20720;-69
2022/01/22 09:33:26;;;;;;;3.65;2.63;;;13.90;68.10;;;;;;4974363;28;20283;-70
2022/01/22 09:35:53;;;;;;;2.83;2.55;;;15.30;65.50;;;;;;4974858;28;20478;-70
2022/01/22 09:38:21;;;;;;;3.30;2.35;;;16.60;61.70;;;;;;4976482;28;20751;-70
2022/01/22 09:40:49;;;;;;;2.88;2.40;;;18.00;58.30;;;;;;4978268;28;20405;-72
2022/01/22 09:43:16;;;;;;;2.90;2.70;;;19.30;55.90;;;;;;4979104;28;20304;-71
2022/01/22 09:45:43;;;;;;;2.40;2.20;;;19.90;54.30;;;;;;4975116;28;20274;-71
2022/01/22 09:48:11;;;;;;;8.32;2.92;;;20.40;53.80;;;;;;4979396;28;20224;-70
2022/01/22 09:50:39;;;;;;;3.70;3.20;;;20.50;53.00;;;;;;4978224;28;20577;-70
2022/01/22 09:53:06;;;;;;;2.28;2.17;;;20.40;53.30;;;;;;4979677;28;20229;-72
2022/01/22 09:55:33;;;;;;;2.40;2.20;;;19.90;53.50;;;;;;4983697;28;20682;-70
2022/01/22 09:58:00;;;;;;;2.10;2.00;;;18.90;52.60;;;;;;4979411;28;20708;-70
2022/01/22 10:00:28;;;;;;;2.45;2.25;;;17.30;55.10;;;;;;4978286;28;20212;-73
2022/01/22 10:02:57;;;;;;;3.55;2.25;;;15.90;57.60;;;;;;4977280;28;20222;-70
2022/01/22 10:05:31;;;;;;;2.67;2.47;;;14.80;60.40;;;;;;4982126;28;20255;-72
2022/01/22 10:08:25;;;;;;;2.67;2.47;;;13.90;63.20;;;;;;4977626;28;20228;-71
2022/01/22 10:10:53;;;;;;;2.97;2.20;;;13.30;64.70;;;;;;4981505;28;20283;-70
2022/01/22 10:13:40;;;;;;;2.88;2.53;;;13.00;66.90;;;;;;4981402;28;20228;-69
2022/01/22 10:16:16;;;;;;;4.13;2.38;;;12.30;67.30;;;;;;4976519;28;20748;-72
2022/01/22 10:18:44;;;;;;;3.00;2.70;;;11.90;68.80;;;;;;4975682;28;20556;-70
2022/01/22 10:21:14;;;;;;;2.28;2.08;;;12.00;69.00;;;;;;4981953;28;20280;-69
2022/01/22 10:23:42;;;;;;;2.40;2.20;;;12.00;69.00;;;;;;4980455;28;20213;-71
2022/01/22 10:26:12;;;;;;;2.78;2.47;;;12.10;68.30;;;;;;4981086;28;20199;-70
2022/01/22 10:28:44;;;;;;;2.90;2.47;;;12.20;67.80;;;;;;4981486;28;20223;-70
2022/01/22 10:31:19;;;;;;;2.38;2.17;;;12.30;66.80;;;;;;4982584;28;20766;-71
2022/01/22 10:34:07;;;;;;;2.25;2.15;;;12.40;66.00;;;;;;4982047;28;20309;-70
2022/01/22 10:36:36;;;;;;;4.88;2.33;;;11.80;67.30;;;;;;4981799;28;20216;-73
2022/01/22 10:39:07;;;;;;;2.75;2.55;;;11.70;67.80;;;;;;4982024;28;20216;-69
2022/01/22 10:41:37;;;;;;;2.20;2.10;;;11.60;67.80;;;;;;4981589;28;20279;-71
2022/01/22 10:44:07;;;;;;;2.30;2.20;;;11.80;67.40;;;;;;4978192;28;20201;-70
2022/01/22 10:46:47;;;;;;;2.20;2.05;;;11.80;67.50;;;;;;4978347;28;20229;-70
2022/01/22 10:49:16;;;;;;;1.80;1.70;;;11.80;67.40;;;;;;4963470;28;20217;-71
2022/01/22 10:51:54;;;;;;;2.08;1.98;;;11.80;67.50;;;;;;4958324;28;20321;-71
2022/01/22 10:54:23;;;;;;;3.63;2.60;;;11.80;67.80;;;;;;4957541;28;20269;-70
2022/01/22 10:56:52;;;;;;;3.40;2.00;;;12.00;67.60;;;;;;4960699;28;20217;-71
2022/01/22 10:59:20;;;;;;;3.03;2.72;;;12.20;67.30;;;;;;4960456;28;20276;-72
2022/01/22 11:01:56;;;;;;;2.50;2.08;;;12.30;67.00;;;;;;4959237;28;20233;-71
2022/01/22 11:04:25;;;;;;;2.60;2.40;;;12.40;66.80;;;;;;4955376;28;20202;-71
2022/01/22 11:06:56;;;;;;;3.58;2.17;;;12.80;67.00;;;;;;4955492;28;20652;-70
2022/01/22 11:09:24;;;;;;;2.00;1.90;;;12.50;66.40;;;;;;4967430;28;20198;-71
2022/01/22 11:11:52;;;;;;;2.20;2.10;;;12.40;66.50;;;;;;4961623;28;20252;-70
2022/01/22 11:14:20;;;;;;;6.90;2.30;;;12.80;66.40;;;;;;4959856;28;20848;-70
2022/01/22 11:16:50;;;;;;;2.10;2.00;;;13.20;66.20;;;;;;4958975;28;20226;-71
2022/01/22 11:19:19;;;;;;;2.85;2.00;;;13.40;65.80;;;;;;4960417;28;20201;-70
2022/01/22 11:21:49;;;;;;;2.60;2.40;;;13.40;65.90;;;;;;4953902;28;20640;-69
2022/01/22 11:24:19;;;;;;;2.05;1.90;;;13.30;66.30;;;;;;4961583;28;20201;-71
2022/01/22 11:26:50;;;;;;;2.25;2.00;;;13.30;65.10;;;;;;4959642;28;20229;-72
2022/01/22 11:29:18;;;;;;;1.85;1.70;;;13.30;64.20;;;;;;4955044;28;20670;-71
2022/01/22 11:31:48;;;;;;;1.60;1.50;;;13.30;64.90;;;;;;4956493;28;20221;-71
2022/01/22 11:34:18;;;;;;;1.98;1.80;;;12.80;64.70;;;;;;4963861;28;20201;-70
2022/01/22 11:36:53;;;;;;;1.88;1.70;;;12.70;66.00;;;;;;4960137;28;20739;-70
2022/01/22 11:39:25;;;;;;;1.88;1.77;;;12.80;65.50;;;;;;4961287;28;20910;-70
2022/01/22 11:41:53;;;;;;;2.13;1.92;;;13.00;65.80;;;;;;4957746;28;20244;-72
2022/01/22 11:44:34;;;;;;;1.85;1.75;;;13.00;65.70;;;;;;4959810;28;20205;-71
2022/01/22 11:47:13;;;;;;;2.10;1.90;;;13.10;65.50;;;;;;4955207;28;20536;-70
2022/01/22 11:49:41;;;;;;;2.05;1.88;;;13.10;65.40;;;;;;4962810;28;20201;-71
2022/01/22 11:52:28;;;;;;;1.80;1.70;;;12.80;66.20;;;;;;4958762;28;20225;-71
2022/01/22 11:54:59;;;;;;;2.08;1.80;;;12.90;66.10;;;;;;4961775;28;20695;-70
2022/01/22 11:57:27;;;;;;;1.90;1.80;;;13.10;66.20;;;;;;4957361;28;20708;-71
2022/01/22 12:00:24;;;;;;;1.73;1.63;;;13.30;65.70;;;;;;4960029;28;20213;-72
2022/01/22 12:03:20;;;;;;;2.63;1.70;;;13.50;64.80;;;;;;4963726;28;20217;-73
2022/01/22 12:06:07;;;;;;;1.80;1.70;;;13.40;64.20;;;;;;4960673;28;20217;-70
2022/01/22 12:09:06;;;;;;;1.88;1.77;;;13.30;64.60;;;;;;4960797;28;20941;-71
2022/01/22 12:14:57;;;;;;;1.98;1.80;;;12.80;66.00;;;;;;4955558;28;20229;-70
2022/01/22 12:18:05;;;;;;;2.20;1.80;;;12.90;65.80;;;;;;4954408;28;20228;-70
2022/01/22 12:23:56;;;;;;;2.10;1.63;;;12.40;67.10;;;;;;4950741;28;20443;-68
2022/01/22 12:26:43;;;;;;;2.47;1.40;;;12.40;67.20;;;;;;4958578;28;20201;-71
2022/01/22 12:29:30;;;;;;;1.98;1.88;;;12.40;66.40;;;;;;4966310;28;20267;-71
2022/01/22 12:32:13;;;;;;;1.75;1.65;;;12.40;67.50;;;;;;4981775;28;20250;-70
2022/01/22 12:34:55;;;;;;;1.90;1.70;;;12.60;67.70;;;;;;4977719;28;20221;-71
2022/01/22 12:37:23;;;;;;;2.00;1.90;;;12.80;67.40;;;;;;4982213;28;20217;-69
2022/01/22 12:39:53;;;;;;;1.60;1.50;;;13.00;67.70;;;;;;4982938;28;20790;-70
2022/01/22 12:42:31;;;;;;;1.98;1.88;;;13.30;67.30;;;;;;4978725;28;20201;-71
2022/01/22 12:44:59;;;;;;;2.00;1.90;;;13.50;67.20;;;;;;4975543;28;20232;-69
2022/01/22 12:47:28;;;;;;;2.90;1.90;;;13.50;66.40;;;;;;4976707;28;20711;-70
2022/01/22 12:50:00;;;;;;;1.83;1.73;;;13.50;66.40;;;;;;4981496;28;20216;-69
2022/01/22 12:52:28;;;;;;;1.85;1.75;;;13.30;67.30;;;;;;4978600;28;20264;-70
2022/01/22 12:54:58;;;;;;;1.80;1.70;;;13.20;68.10;;;;;;4974339;28;20316;-70
2022/01/22 12:57:29;;;;;;;2.20;2.00;;;13.30;67.50;;;;;;4978759;28;20279;-70
2022/01/22 13:00:05;;;;;;;2.03;1.85;;;13.30;66.90;;;;;;4981568;28;20275;-70
2022/01/22 13:02:40;;;;;;;1.83;1.70;;;13.10;66.60;;;;;;4979511;28;20557;-70
2022/01/22 13:05:08;;;;;;;2.42;2.22;;;12.90;67.70;;;;;;4981485;28;20568;-69
2022/01/22 13:07:40;;;;;;;2.20;2.00;;;13.20;68.50;;;;;;4979869;28;20316;-70
2022/01/22 13:10:08;;;;;;;3.78;2.30;;;13.30;67.50;;;;;;4981541;28;20228;-70
2022/01/22 13:12:42;;;;;;;2.33;1.40;;;13.20;67.50;;;;;;4981605;28;20233;-69
2022/01/22 13:15:11;;;;;;;5.97;2.08;;;13.00;67.60;;;;;;4983287;28;20217;-73
2022/01/22 13:17:39;;;;;;;2.60;2.40;;;13.20;68.70;;;;;;4980659;28;20217;-69
2022/01/22 13:20:10;;;;;;;2.45;2.25;;;13.30;69.60;;;;;;4981430;28;20225;-69
2022/01/22 13:22:39;;;;;;;2.20;2.00;;;13.40;68.80;;;;;;4982246;28;20288;-69
2022/01/22 13:25:09;;;;;;;2.03;1.92;;;13.50;68.50;;;;;;4994732;23;20562;-72
2022/01/22 13:27:39;;;;;;;2.85;2.42;;;13.70;68.40;;;;;;4962855;28;20217;-72
2022/01/22 13:30:08;;;;;;;2.47;2.28;;;13.80;69.20;;;;;;4977681;28;20243;-76
2022/01/22 13:32:50;;;;;;;3.05;2.40;;;13.80;69.80;;;;;;4966151;28;20275;-74
2022/01/22 13:35:28;;;;;;;2.63;2.13;;;13.80;68.40;;;;;;4983543;28;20240;-73
2022/01/22 13:38:25;;;;;;;2.30;2.08;;;13.80;68.40;;;;;;4991211;28;20217;-74
2022/01/22 13:49:23;;;;;;;3.03;2.80;;;13.80;70.20;;;;;;4985897;28;20290;-74
2022/01/22 13:51:50;;;;;;;2.85;2.65;;;13.70;69.80;;;;;;4985441;28;20212;-73
2022/01/22 13:54:18;;;;;;;4.47;2.70;;;13.40;69.90;;;;;;4985636;28;20200;-74
2022/01/22 13:56:52;;;;;;;2.55;2.22;;;13.40;70.00;;;;;;5009739;28;20254;-73
2022/01/22 13:59:24;;;;;;;2.30;2.10;;;13.40;70.10;;;;;;4984087;28;20192;-72
2022/01/22 14:02:07;;;;;;;3.58;2.70;;;13.40;70.30;;;;;;4983189;28;20217;-74
2022/01/22 14:04:43;;;;;;;3.53;2.80;;;13.40;71.00;;;;;;4991147;28;20763;-74
2022/01/22 14:07:25;;;;;;;3.58;3.28;;;13.60;71.20;;;;;;4982136;28;20213;-75
2022/01/22 14:09:54;;;;;;;5.20;2.55;;;13.50;71.10;;;;;;4979705;28;20227;-73
2022/01/22 14:12:22;;;;;;;4.13;2.08;;;13.30;71.20;;;;;;4977748;28;20204;-74
2022/01/22 14:15:01;;;;;;;3.10;2.20;;;13.10;71.20;;;;;;4985850;28;20275;-73
2022/01/22 14:17:36;;;;;;;4.45;2.00;;;13.00;71.40;;;;;;4981282;28;20196;-74
2022/01/22 14:20:07;;;;;;;2.53;2.15;;;12.60;71.60;;;;;;4981271;28;20938;-74
2022/01/22 14:22:56;;;;;;;2.03;1.83;;;12.20;72.60;;;;;;4982946;28;20197;-74
2022/01/22 14:25:24;;;;;;;3.17;2.88;;;11.90;73.00;;;;;;4982945;28;20227;-74
2022/01/22 14:28:09;;;;;;;7.60;6.28;;;11.70;74.20;;;;;;4994219;28;20710;-74
2022/01/22 14:30:48;;;;;;;4.13;3.72;;;11.60;74.30;;;;;;4984583;28;20220;-74